createdAt,value
2023-04-26T00:00:24.629Z,100900.75
2023-04-26T00:02:51.167Z,100897.13
2023-04-26T00:05:19.677Z,100897.78
2023-04-26T00:07:46.579Z,100908.56
2023-04-26T00:10:12.921Z,100897.06
2023-04-26T00:12:41.121Z,100901.31
2023-04-26T00:15:07.690Z,100904.84
2023-04-26T00:17:34.113Z,100901.94
2023-04-26T00:20:00.501Z,100906.97
2023-04-26T00:22:26.918Z,100901.13
2023-04-26T00:24:53.320Z,100905.41
2023-04-26T00:27:19.671Z,100898.16
2023-04-26T00:29:46.024Z,100914.69
2023-04-26T00:32:12.524Z,100908.22
2023-04-26T00:34:38.956Z,100907.56
2023-04-26T00:37:05.326Z,100907.47
2023-04-26T00:39:31.707Z,100906.72
2023-04-26T00:41:58.052Z,100911.00
2023-04-26T00:44:24.394Z,100905.25
2023-04-26T00:46:51.707Z,100905.25
2023-04-26T00:49:18.859Z,100905.25
2023-04-26T00:51:45.254Z,100906.66
2023-04-26T00:54:12.237Z,100910.25
2023-04-26T00:56:38.566Z,100909.44
2023-04-26T00:59:04.922Z,100909.44
2023-04-26T01:01:31.281Z,100911.56
2023-04-26T01:03:57.820Z,100909.34
2023-04-26T01:06:24.402Z,100913.59
2023-04-26T01:08:51.729Z,100915.00
2023-04-26T01:11:19.757Z,100921.41
2023-04-26T01:13:46.283Z,100914.19
2023-04-26T01:16:12.667Z,100919.19
2023-04-26T01:18:39.960Z,100919.19
2023-04-26T01:21:06.310Z,100919.19
2023-04-26T01:23:32.679Z,100927.06
2023-04-26T01:25:59.036Z,100927.75
2023-04-26T01:28:25.698Z,100932.00
2023-04-26T01:30:52.079Z,100926.25
2023-04-26T01:33:18.450Z,100923.38
2023-04-26T01:35:44.781Z,100926.25
2023-04-26T01:38:11.162Z,100930.53
2023-04-26T01:40:37.735Z,100930.53
2023-04-26T01:43:06.369Z,100937.75
2023-04-26T01:45:32.749Z,100937.22
2023-04-26T01:48:17.620Z,100940.81
2023-04-26T01:50:43.954Z,100929.31
2023-04-26T01:53:12.830Z,100942.31
2023-04-26T01:55:39.176Z,100936.63
2023-04-26T01:58:05.560Z,100942.41
2023-04-26T02:00:33.349Z,100938.78
2023-04-26T02:02:59.801Z,100938.13
2023-04-26T02:05:26.341Z,100942.41
2023-04-26T02:07:52.703Z,100943.06
2023-04-26T02:10:19.054Z,100947.41
2023-04-26T02:12:45.421Z,100946.59
2023-04-26T02:15:11.768Z,100951.59
2023-04-26T02:17:38.582Z,100945.13
2023-04-26T02:20:05.012Z,100942.25
2023-04-26T02:22:31.591Z,100941.47
2023-04-26T02:24:58.488Z,100945.03
2023-04-26T02:27:27.825Z,100940.63
2023-04-26T02:29:54.379Z,100932.00
2023-04-26T02:32:20.743Z,100936.28
2023-04-26T02:34:47.113Z,100939.16
2023-04-26T02:37:13.729Z,100933.31
2023-04-26T02:39:40.078Z,100934.72
2023-04-26T02:42:10.280Z,100929.59
2023-04-26T02:44:37.432Z,100928.88
2023-04-26T02:47:03.991Z,100924.59
2023-04-26T02:49:30.718Z,100930.44
2023-04-26T02:51:57.069Z,100939.25
2023-04-26T02:54:23.867Z,100929.88
2023-04-26T02:56:51.167Z,100931.34
2023-04-26T02:59:17.521Z,100932.19
2023-04-26T03:01:43.884Z,100933.69
2023-04-26T03:04:10.570Z,100928.00
2023-04-26T03:06:37.664Z,100936.63
2023-04-26T03:09:05.557Z,100936.63
2023-04-26T03:11:32.099Z,100939.50
2023-04-26T03:13:58.478Z,100935.91
2023-04-26T03:16:24.868Z,100940.28
2023-04-26T03:18:51.510Z,100935.91
2023-04-26T03:21:18.113Z,100932.28
2023-04-26T03:23:44.741Z,100932.38
2023-04-26T03:26:11.126Z,100936.72
2023-04-26T03:28:37.579Z,100943.25
2023-04-26T03:31:03.996Z,100941.84
2023-04-26T03:33:31.037Z,100944.06
2023-04-26T03:35:57.502Z,100948.34
2023-04-26T03:38:24.957Z,100942.56
2023-04-26T03:40:51.430Z,100949.75
2023-04-26T03:43:17.790Z,100941.09
2023-04-26T03:45:46.524Z,100953.38
2023-04-26T03:48:12.942Z,100952.63
2023-04-26T03:50:39.527Z,100952.63
2023-04-26T03:53:05.898Z,100956.97
2023-04-26T03:55:32.276Z,100952.63
2023-04-26T03:57:58.790Z,100955.59
2023-04-26T04:00:25.426Z,100957.06
2023-04-26T04:02:52.106Z,100955.59
2023-04-26T04:05:23.981Z,100949.84
2023-04-26T04:07:50.473Z,100967.13
2023-04-26T04:10:17.166Z,100964.25
2023-04-26T04:12:44.506Z,100964.16
2023-04-26T04:15:11.065Z,100966.28
2023-04-26T04:17:40.465Z,100971.38
2023-04-26T04:20:07.429Z,100971.38
2023-04-26T04:22:33.874Z,100969.91
2023-04-26T04:25:00.567Z,100968.50
2023-04-26T04:27:27.051Z,100970.00
2023-04-26T04:29:56.365Z,100975.75
2023-04-26T04:32:23.828Z,100974.34
2023-04-26T04:34:53.848Z,100975.84
2023-04-26T04:37:21.174Z,100972.97
2023-04-26T04:39:47.583Z,100985.13
2023-04-26T04:42:14.844Z,100980.13
2023-04-26T04:44:41.513Z,100992.28
2023-04-26T04:47:08.025Z,100988.66
2023-04-26T04:49:34.369Z,100991.53
2023-04-26T04:52:00.956Z,100987.28
2023-04-26T04:54:27.357Z,100983.00
2023-04-26T04:56:53.830Z,100993.13
2023-04-26T04:59:20.389Z,100987.38
2023-04-26T05:01:48.250Z,100993.13
2023-04-26T05:04:15.572Z,100991.72
2023-04-26T05:06:42.835Z,100993.88
2023-04-26T05:09:10.304Z,100994.59
2023-04-26T05:11:36.877Z,100999.63
2023-04-26T05:14:04.536Z,100997.38
2023-04-26T05:16:31.145Z,101003.88
2023-04-26T05:18:59.407Z,101002.41
2023-04-26T05:21:25.935Z,101007.44
2023-04-26T05:23:52.662Z,101010.41
2023-04-26T05:26:19.243Z,101014.66
2023-04-26T05:28:55.939Z,101010.41
2023-04-26T05:31:40.719Z,101027.75
2023-04-26T05:34:12.397Z,101021.25
2023-04-26T05:36:39.925Z,101022.66
2023-04-26T05:39:07.583Z,101023.41
2023-04-26T05:41:33.996Z,101033.50
2023-04-26T05:44:00.433Z,101029.16
2023-04-26T05:46:26.965Z,101026.28
2023-04-26T05:48:53.423Z,101038.44
2023-04-26T05:51:20.493Z,101043.84
2023-04-26T05:53:46.853Z,101030.03
2023-04-26T05:56:13.607Z,101035.25
2023-04-26T05:58:40.068Z,101042.53
2023-04-26T06:01:06.423Z,101049.03
2023-04-26T06:03:34.108Z,101043.75
2023-04-26T06:06:01.438Z,101043.94
2023-04-26T06:08:28.621Z,101039.94
2023-04-26T06:10:55.025Z,101043.56
2023-04-26T06:13:21.401Z,101035.66
2023-04-26T06:15:47.780Z,101048.59
2023-04-26T06:18:14.910Z,101044.19
2023-04-26T06:20:42.285Z,101045.03
2023-04-26T06:23:09.562Z,101044.41
2023-04-26T06:25:37.055Z,101039.41
2023-04-26T06:28:03.866Z,101048.81
2023-04-26T06:30:31.159Z,101047.31
2023-04-26T06:33:00.133Z,101044.28
2023-04-26T06:35:26.649Z,101053.22
2023-04-26T06:37:53.132Z,101041.22
2023-04-26T06:40:20.191Z,101055.00
2023-04-26T06:42:46.611Z,101042.72
2023-04-26T06:45:25.177Z,101044.94
2023-04-26T06:47:52.092Z,101054.34
2023-04-26T06:50:18.582Z,101055.72
2023-04-26T06:52:44.933Z,101048.69
2023-04-26T06:55:11.297Z,101054.44
2023-04-26T06:57:37.665Z,101050.91
2023-04-26T07:00:04.473Z,101055.19
2023-04-26T07:02:30.920Z,101063.19
2023-04-26T07:04:57.750Z,101057.44
2023-04-26T07:07:24.226Z,101060.31
2023-04-26T07:09:50.583Z,101066.81
2023-04-26T07:12:16.936Z,101057.50
2023-04-26T07:14:43.426Z,101061.78
2023-04-26T07:17:10.220Z,101055.53
2023-04-26T07:19:36.652Z,101066.09
2023-04-26T07:22:03.436Z,101072.53
2023-04-26T07:24:29.839Z,101070.38
2023-04-26T07:26:56.234Z,101072.63
2023-04-26T07:29:22.689Z,101078.84
2023-04-26T07:31:49.019Z,101071.06
2023-04-26T07:34:15.394Z,101076.91
2023-04-26T07:36:41.753Z,101067.63
2023-04-26T07:39:09.831Z,101070.50
2023-04-26T07:41:36.273Z,101079.16
2023-04-26T07:44:02.803Z,101074.13
2023-04-26T07:46:29.172Z,101081.38
2023-04-26T07:48:55.724Z,101077.09
2023-04-26T07:51:22.096Z,101081.38
2023-04-26T07:53:48.751Z,101085.00
2023-04-26T07:56:15.456Z,101078.50
2023-04-26T07:58:41.828Z,101080.63
2023-04-26T08:01:08.736Z,101089.16
2023-04-26T08:03:35.570Z,101096.81
2023-04-26T08:06:02.387Z,101101.72
2023-04-26T08:08:28.963Z,101096.63
2023-04-26T08:10:55.707Z,101106.97
2023-04-26T08:13:22.245Z,101093.34
2023-04-26T08:15:48.687Z,101096.16
2023-04-26T08:18:15.021Z,101109.28
2023-04-26T08:20:41.371Z,101099.72
2023-04-26T08:23:07.740Z,101109.50
2023-04-26T08:25:34.875Z,101100.31
2023-04-26T08:28:01.869Z,101095.47
2023-04-26T08:30:28.215Z,101100.63
2023-04-26T08:32:54.637Z,101096.44
2023-04-26T08:35:22.243Z,101099.53
2023-04-26T08:37:48.603Z,101105.38
2023-04-26T08:40:15.126Z,101091.16
2023-04-26T08:42:44.526Z,101104.94
2023-04-26T08:45:13.549Z,101104.28
2023-04-26T08:47:39.880Z,101095.09
2023-04-26T08:50:06.480Z,101084.34
2023-04-26T08:52:32.847Z,101101.03
2023-04-26T08:54:59.646Z,101098.25
2023-04-26T08:57:26.243Z,101099.75
2023-04-26T08:59:56.125Z,101090.47
2023-04-26T09:02:22.910Z,101109.25
2023-04-26T09:04:49.820Z,101094.19
2023-04-26T09:07:19.445Z,101094.94
2023-04-26T09:09:46.541Z,101092.69
2023-04-26T09:12:12.889Z,101097.88
2023-04-26T09:14:39.242Z,101103.56
2023-04-26T09:17:05.645Z,101100.69
2023-04-26T09:19:38.338Z,101103.47
2023-04-26T09:22:04.680Z,101099.94
2023-04-26T09:24:47.288Z,101107.09
2023-04-26T09:27:13.709Z,101089.09
2023-04-26T09:29:40.065Z,101089.91
2023-04-26T09:32:07.899Z,101094.94
2023-04-26T09:34:43.944Z,101083.44
2023-04-26T09:37:12.196Z,101097.88
2023-04-26T09:39:40.270Z,101102.38
2023-04-26T09:42:09.504Z,101095.09
2023-04-26T09:44:35.983Z,101103.75
2023-04-26T09:47:05.948Z,101086.47
2023-04-26T09:49:46.659Z,101101.63
2023-04-26T09:52:13.064Z,101099.50
2023-04-26T09:54:40.754Z,101100.88
2023-04-26T09:57:07.253Z,101088.63
2023-04-26T09:59:40.425Z,101090.84
2023-04-26T10:02:08.160Z,101085.72
2023-04-26T10:04:34.529Z,101089.34
2023-04-26T10:07:01.044Z,101085.09
2023-04-26T10:09:27.547Z,101090.13
2023-04-26T10:11:53.867Z,101087.22
2023-04-26T10:14:20.195Z,101089.34
2023-04-26T10:16:46.580Z,101087.97
2023-04-26T10:19:12.926Z,101090.19
2023-04-26T10:21:39.270Z,101088.06
2023-04-26T10:24:05.903Z,101086.66
2023-04-26T10:26:52.725Z,101093.81
2023-04-26T10:29:19.796Z,101100.31
2023-04-26T10:32:05.176Z,101100.31
2023-04-26T10:34:32.034Z,101104.59
2023-04-26T10:37:16.848Z,101100.31
2023-04-26T10:39:43.594Z,101103.94
2023-04-26T10:42:25.825Z,101106.09
2023-04-26T10:44:56.459Z,101100.97
2023-04-26T10:47:33.451Z,101106.09
2023-04-26T10:50:09.773Z,101112.59
2023-04-26T10:52:36.798Z,101106.09
2023-04-26T10:55:03.156Z,101106.81
2023-04-26T10:57:46.353Z,101111.09
2023-04-26T11:00:17.147Z,101099.59
2023-04-26T11:02:46.969Z,101095.31
2023-04-26T11:05:32.091Z,101094.56
2023-04-26T11:08:25.011Z,101105.34
2023-04-26T11:10:52.376Z,101098.09
2023-04-26T11:13:19.581Z,101100.22
2023-04-26T11:15:46.453Z,101104.50
2023-04-26T11:18:12.827Z,101095.09
2023-04-26T11:20:39.177Z,101111.66
2023-04-26T11:23:05.538Z,101100.88
2023-04-26T11:25:31.916Z,101108.03
2023-04-26T11:27:59.230Z,101121.69
2023-04-26T11:30:25.720Z,101113.69
2023-04-26T11:32:52.123Z,101123.06
2023-04-26T11:35:18.507Z,101115.16
2023-04-26T11:37:45.419Z,101113.69
2023-04-26T11:40:11.919Z,101115.16
2023-04-26T11:42:38.295Z,101122.44
2023-04-26T11:45:07.072Z,101116.66
2023-04-26T11:47:34.071Z,101121.25
2023-04-26T11:51:26.811Z,101112.94
2023-04-26T11:53:54.283Z,101106.34
2023-04-26T11:56:21.747Z,101113.31
2023-04-26T11:58:48.441Z,101112.59
2023-04-26T12:01:21.762Z,101107.84
2023-04-26T12:03:49.915Z,101117.31
2023-04-26T12:06:16.391Z,101125.88
2023-04-26T12:08:48.649Z,101125.88
2023-04-26T12:11:16.249Z,101131.72
2023-04-26T12:13:42.575Z,101126.72
2023-04-26T12:16:22.368Z,101131.91
2023-04-26T12:18:52.657Z,101130.75
2023-04-26T12:21:19.324Z,101126.44
2023-04-26T12:23:47.880Z,101128.66
2023-04-26T12:26:14.259Z,101123.88
2023-04-26T12:28:41.314Z,101112.81
2023-04-26T12:31:08.217Z,101113.22
2023-04-26T12:33:34.761Z,101114.13
2023-04-26T12:36:07.982Z,101119.06
2023-04-26T12:38:34.329Z,101113.72
2023-04-26T12:41:01.292Z,101116.06
2023-04-26T12:43:27.658Z,101109.66
2023-04-26T12:45:54.064Z,101105.56
2023-04-26T12:48:20.516Z,101104.94
2023-04-26T12:50:46.895Z,101108.44
2023-04-26T12:53:13.956Z,101106.59
2023-04-26T12:55:40.301Z,101109.03
2023-04-26T12:58:06.709Z,101107.53
2023-04-26T13:00:33.041Z,101111.09
2023-04-26T13:02:59.559Z,101104.75
2023-04-26T13:05:26.055Z,101112.00
2023-04-26T13:07:52.669Z,101107.81
2023-04-26T13:10:19.067Z,101101.22
2023-04-26T13:12:45.780Z,101114.00
2023-04-26T13:15:12.152Z,101118.56
2023-04-26T13:17:38.716Z,101111.41
2023-04-26T13:20:06.201Z,101108.41
2023-04-26T13:22:32.557Z,101115.00
2023-04-26T13:24:58.976Z,101114.88
2023-04-26T13:27:25.633Z,101126.03
2023-04-26T13:29:52.373Z,101114.72
2023-04-26T13:32:18.704Z,101119.06
2023-04-26T13:34:47.809Z,101127.81
2023-04-26T13:37:14.546Z,101117.13
2023-04-26T13:39:40.919Z,101130.88
2023-04-26T13:42:07.330Z,101127.38
2023-04-26T13:44:33.955Z,101133.13
2023-04-26T13:47:00.855Z,101129.59
2023-04-26T13:49:27.354Z,101132.56
2023-04-26T13:51:53.752Z,101136.22
2023-04-26T13:54:21.966Z,101126.19
2023-04-26T13:56:48.543Z,101139.84
2023-04-26T13:59:14.990Z,101124.03
2023-04-26T14:01:41.547Z,101142.03
2023-04-26T14:04:11.279Z,101132.66
2023-04-26T14:06:37.758Z,101142.03
2023-04-26T14:09:06.924Z,101133.41
2023-04-26T14:11:33.252Z,101135.56
2023-04-26T14:13:59.597Z,101137.69
2023-04-26T14:16:26.043Z,101145.69
2023-04-26T14:18:52.456Z,101131.28
2023-04-26T14:21:18.875Z,101135.56
2023-04-26T14:23:45.239Z,101129.16
2023-04-26T14:26:11.891Z,101129.91
2023-04-26T14:28:38.501Z,101139.28
2023-04-26T14:31:04.844Z,101128.53
2023-04-26T14:33:31.508Z,101138.53
2023-04-26T14:35:57.862Z,101132.78
2023-04-26T14:38:24.231Z,101130.63
2023-04-26T14:40:50.909Z,101134.28
2023-04-26T14:43:17.262Z,101141.50
2023-04-26T14:45:44.896Z,101138.53
2023-04-26T14:48:12.412Z,101131.47
2023-04-26T14:50:38.851Z,101130.09
2023-04-26T14:53:05.227Z,101138.72
2023-04-26T14:55:31.598Z,101138.72
2023-04-26T14:57:57.955Z,101145.22
2023-04-26T15:00:25.496Z,101132.97
2023-04-26T15:02:51.973Z,101138.00
2023-04-26T15:05:18.609Z,101138.63
2023-04-26T15:07:44.933Z,101135.75
2023-04-26T15:10:11.381Z,101142.91
2023-04-26T15:12:37.733Z,101134.28
2023-04-26T15:15:04.207Z,101140.03
2023-04-26T15:17:31.742Z,101140.03
2023-04-26T15:19:58.094Z,101137.16
2023-04-26T15:22:24.451Z,101134.28
2023-04-26T15:24:51.112Z,101134.28
2023-04-26T15:27:17.750Z,101141.41
2023-04-26T15:29:44.100Z,101138.53
2023-04-26T15:32:10.777Z,101136.38
2023-04-26T15:34:40.716Z,101138.53
2023-04-26T15:37:07.302Z,101138.53
2023-04-26T15:39:33.674Z,101149.31
2023-04-26T15:42:00.032Z,101148.56
2023-04-26T15:44:26.703Z,101154.31
2023-04-26T15:46:53.050Z,101145.69
2023-04-26T15:49:19.409Z,101151.44
2023-04-26T15:51:45.808Z,101148.56
2023-04-26T15:54:12.157Z,101148.56
2023-04-26T15:56:38.476Z,101144.94
2023-04-26T15:59:04.816Z,101147.81
2023-04-26T16:01:31.235Z,101152.81
2023-04-26T16:03:57.859Z,101151.34
2023-04-26T16:06:24.342Z,101157.09
2023-04-26T16:08:50.721Z,101153.50
2023-04-26T16:11:17.088Z,101148.47
2023-04-26T16:13:44.535Z,101154.22
2023-04-26T16:16:11.494Z,101151.34
2023-04-26T16:18:40.869Z,101155.59
2023-04-26T16:21:08.161Z,101144.09
2023-04-26T16:23:34.511Z,101151.34
2023-04-26T16:26:01.404Z,101147.81
2023-04-26T16:28:27.767Z,101152.19
2023-04-26T16:30:54.166Z,101145.78
2023-04-26T16:33:22.663Z,101147.28
2023-04-26T16:35:49.951Z,101143.00
2023-04-26T16:38:16.288Z,101140.09
2023-04-26T16:40:42.637Z,101140.22
2023-04-26T16:43:12.291Z,101140.22
2023-04-26T16:45:38.857Z,101140.22
2023-04-26T16:48:05.273Z,101148.94
2023-04-26T16:50:31.654Z,101154.91
2023-04-26T16:52:57.985Z,101148.41
2023-04-26T16:55:24.418Z,101152.13
2023-04-26T16:57:51.164Z,101153.53
2023-04-26T17:00:17.627Z,101152.13
2023-04-26T17:02:44.160Z,101156.41
2023-04-26T17:05:10.905Z,101154.38
2023-04-26T17:07:37.474Z,101150.72
2023-04-26T17:10:03.890Z,101154.38
2023-04-26T17:12:30.314Z,101159.38
2023-04-26T17:14:56.755Z,101163.84
2023-04-26T17:17:23.092Z,101166.63
2023-04-26T17:19:49.427Z,101170.88
2023-04-26T17:22:15.805Z,101170.97
2023-04-26T17:24:42.146Z,101179.63
2023-04-26T17:27:08.559Z,101176.63
2023-04-26T17:29:34.993Z,101176.47
2023-04-26T17:32:01.441Z,101179.63
2023-04-26T17:34:27.794Z,101174.44
2023-04-26T17:36:54.137Z,101176.00
2023-04-26T17:39:20.502Z,101189.66
2023-04-26T17:41:46.863Z,101181.66
2023-04-26T17:44:13.210Z,101180.91
2023-04-26T17:46:39.547Z,101186.88
2023-04-26T17:49:07.172Z,101188.16
2023-04-26T17:51:33.546Z,101191.81
2023-04-26T17:53:59.904Z,101183.50
2023-04-26T17:56:26.477Z,101183.22
2023-04-26T17:58:52.848Z,101185.00
2023-04-26T18:01:21.101Z,101187.88
2023-04-26T18:03:47.669Z,101193.53
2023-04-26T18:06:14.092Z,101196.31
2023-04-26T18:08:41.032Z,101198.44
2023-04-26T18:11:07.447Z,101196.22
2023-04-26T18:13:33.804Z,101199.81
2023-04-26T18:16:00.684Z,101204.84
2023-04-26T18:18:27.997Z,101210.19
2023-04-26T18:20:54.522Z,101207.41
2023-04-26T18:23:21.567Z,101206.31
2023-04-26T18:25:50.420Z,101207.72
2023-04-26T18:28:16.768Z,101211.91
2023-04-26T18:30:43.154Z,101212.63
2023-04-26T18:33:09.542Z,101216.16
2023-04-26T18:35:36.620Z,101214.88
2023-04-26T18:38:03.769Z,101216.47
2023-04-26T18:40:30.094Z,101220.09
2023-04-26T18:42:56.528Z,101220.81
2023-04-26T18:45:22.901Z,101227.34
2023-04-26T18:47:49.261Z,101220.28
2023-04-26T18:50:15.720Z,101227.00
2023-04-26T18:52:42.080Z,101227.00
2023-04-26T18:55:08.665Z,101229.13
2023-04-26T18:57:35.013Z,101232.75
2023-04-26T19:00:01.566Z,101236.38
2023-04-26T19:02:27.968Z,101237.09
2023-04-26T19:04:54.470Z,101237.88
2023-04-26T19:07:20.944Z,101239.97
2023-04-26T19:09:54.210Z,101246.50
2023-04-26T19:12:21.149Z,101238.50
2023-04-26T19:14:47.505Z,101244.25
2023-04-26T19:17:13.831Z,101235.63
2023-04-26T19:19:40.208Z,101241.38
2023-04-26T19:22:06.573Z,101248.53
2023-04-26T19:24:32.998Z,101244.38
2023-04-26T19:26:59.369Z,101250.13
2023-04-26T19:29:25.756Z,101248.53
2023-04-26T19:31:52.255Z,101252.28
2023-04-26T19:34:18.670Z,101250.03
2023-04-26T19:36:45.001Z,101252.28
2023-04-26T19:39:11.348Z,101247.25
2023-04-26T19:41:37.692Z,101250.88
2023-04-26T19:44:04.065Z,101244.47
2023-04-26T19:46:30.875Z,101251.72
2023-04-26T19:48:57.254Z,101253.22
2023-04-26T19:51:23.609Z,101254.47
2023-04-26T19:53:49.970Z,101250.22
2023-04-26T19:56:16.544Z,101256.09
2023-04-26T19:58:43.361Z,101258.97
2023-04-26T20:01:09.776Z,101261.00
2023-04-26T20:03:38.135Z,101259.59
2023-04-26T20:06:04.699Z,101263.22
2023-04-26T20:08:31.589Z,101261.75
2023-04-26T20:11:01.445Z,101263.22
2023-04-26T20:13:28.794Z,101266.84
2023-04-26T20:15:55.142Z,101263.22
2023-04-26T20:18:22.542Z,101269.00
2023-04-26T20:20:49.282Z,101266.09
2023-04-26T20:23:15.784Z,101264.72
2023-04-26T20:25:42.118Z,101271.97
2023-04-26T20:28:08.455Z,101266.94
2023-04-26T20:30:34.800Z,101273.47
2023-04-26T20:33:01.179Z,101271.97
2023-04-26T20:35:27.597Z,101279.22
2023-04-26T20:37:54.133Z,101279.13
2023-04-26T20:40:20.473Z,101286.38
2023-04-26T20:42:46.822Z,101280.72
2023-04-26T20:45:13.294Z,101281.34
2023-04-26T20:47:39.718Z,101284.22
2023-04-26T20:50:06.283Z,101273.47
2023-04-26T20:52:32.707Z,101277.72
2023-04-26T20:54:59.061Z,101276.25
2023-04-26T20:57:25.884Z,101279.13
2023-04-26T20:59:52.235Z,101276.25
2023-04-26T21:02:18.640Z,101283.38
2023-04-26T21:04:45.296Z,101280.50
2023-04-26T21:07:11.739Z,101279.03
2023-04-26T21:09:38.062Z,101277.53
2023-04-26T21:12:04.498Z,101286.81
2023-04-26T21:14:31.101Z,101276.03
2023-04-26T21:16:57.486Z,101281.81
2023-04-26T21:19:24.199Z,101277.41
2023-04-26T21:21:51.057Z,101281.69
2023-04-26T21:24:17.561Z,101278.81
2023-04-26T21:26:43.922Z,101283.84
2023-04-26T21:29:12.245Z,101284.56
2023-04-26T21:31:38.647Z,101289.59
2023-04-26T21:34:05.033Z,101280.13
2023-04-26T21:36:32.363Z,101283.72
2023-04-26T21:38:58.698Z,101290.88
2023-04-26T21:41:25.812Z,101284.38
2023-04-26T21:43:55.949Z,101290.13
2023-04-26T21:46:22.354Z,101295.13
2023-04-26T21:48:48.721Z,101287.91
2023-04-26T21:51:15.110Z,101294.31
2023-04-26T21:53:41.444Z,101292.16
2023-04-26T21:56:07.837Z,101294.31
2023-04-26T21:58:34.331Z,101297.19
2023-04-26T22:01:07.901Z,101289.91
2023-04-26T22:03:34.461Z,101300.59
2023-04-26T22:06:00.818Z,101298.38
2023-04-26T22:08:27.157Z,101301.25
2023-04-26T22:10:53.520Z,101309.78
2023-04-26T22:13:19.873Z,101315.53
2023-04-26T22:15:46.276Z,101310.50
2023-04-26T22:18:12.616Z,101309.78
2023-04-26T22:20:38.945Z,101304.00
2023-04-26T22:23:05.335Z,101323.41
2023-04-26T22:25:31.661Z,101317.00
2023-04-26T22:27:58.047Z,101329.16
2023-04-26T22:30:26.222Z,101332.03
2023-04-26T22:32:54.492Z,101328.31
2023-04-26T22:35:21.613Z,101332.03
2023-04-26T22:37:48.028Z,101336.31
2023-04-26T22:40:14.600Z,101337.06
2023-04-26T22:42:40.992Z,101341.34
2023-04-26T22:45:07.500Z,101338.34
2023-04-26T22:47:33.896Z,101345.56
2023-04-26T22:50:00.315Z,101351.34
2023-04-26T22:52:31.606Z,101340.47
2023-04-26T22:54:58.359Z,101349.84
2023-04-26T22:57:24.727Z,101344.72
2023-04-26T22:59:51.068Z,101344.00
2023-04-26T23:02:18.256Z,101346.88
2023-04-26T23:04:44.646Z,101349.00
2023-04-26T23:07:11.092Z,101355.41
2023-04-26T23:09:37.544Z,101348.91
2023-04-26T23:12:04.370Z,101348.78
2023-04-26T23:14:30.739Z,101353.81
2023-04-26T23:16:59.781Z,101345.16
2023-04-26T23:19:26.686Z,101355.94
2023-04-26T23:21:53.033Z,101353.81
2023-04-26T23:24:19.385Z,101350.81
2023-04-26T23:26:45.745Z,101352.97
2023-04-26T23:29:12.273Z,101356.56
2023-04-26T23:31:38.766Z,101353.69
2023-04-26T23:34:05.111Z,101353.59
2023-04-26T23:36:33.404Z,101360.09
2023-04-26T23:38:59.765Z,101349.97
2023-04-26T23:41:26.284Z,101356.47
2023-04-26T23:43:52.605Z,101355.00
2023-04-26T23:46:19.037Z,101353.47
2023-04-26T23:48:45.470Z,101352.84
2023-04-26T23:51:11.883Z,101350.59
2023-04-26T23:53:39.621Z,101350.59
2023-04-26T23:56:06.533Z,101347.72
2023-04-26T23:58:32.871Z,101348.34
